sensor_id;sensor_type;location;lat;lon;timestamp;P1;durP1;ratioP1;P2;durP2;ratioP2
15697;SDS011;7949;48.726;9.102;2022-11-20T00:01:13;8.77;;;4.90;;
15697;SDS011;7949;48.726;9.102;2022-11-20T00:03:44;8.57;;;5.33;;
15697;SDS011;7949;48.726;9.102;2022-11-20T00:06:12;7.80;;;5.70;;
15697;SDS011;7949;48.726;9.102;2022-11-20T00:08:40;7.80;;;4.97;;
15697;SDS011;7949;48.726;9.102;2022-11-20T00:11:09;7.83;;;4.90;;
15697;SDS011;7949;48.726;9.102;2022-11-20T00:13:37;6.87;;;4.73;;
15697;SDS011;7949;48.726;9.102;2022-11-20T00:16:05;8.13;;;4.60;;
15697;SDS011;7949;48.726;9.102;2022-11-20T00:18:33;11.10;;;5.27;;
15697;SDS011;7949;48.726;9.102;2022-11-20T00:21:00;5.57;;;4.43;;
15697;SDS011;7949;48.726;9.102;2022-11-20T00:23:28;7.17;;;4.97;;
15697;SDS011;7949;48.726;9.102;2022-11-20T00:25:54;8.03;;;4.63;;
15697;SDS011;7949;48.726;9.102;2022-11-20T00:28:23;9.00;;;5.00;;
15697;SDS011;7949;48.726;9.102;2022-11-20T00:30:49;7.33;;;4.80;;
15697;SDS011;7949;48.726;9.102;2022-11-20T00:33:16;7.73;;;4.40;;
15697;SDS011;7949;48.726;9.102;2022-11-20T00:35:43;6.67;;;4.40;;
15697;SDS011;7949;48.726;9.102;2022-11-20T00:38:10;6.00;;;3.90;;
15697;SDS011;7949;48.726;9.102;2022-11-20T00:40:37;6.80;;;4.70;;
15697;SDS011;7949;48.726;9.102;2022-11-20T00:43:04;8.93;;;4.60;;
15697;SDS011;7949;48.726;9.102;2022-11-20T00:45:32;7.93;;;4.23;;
15697;SDS011;7949;48.726;9.102;2022-11-20T00:47:59;7.60;;;4.03;;
15697;SDS011;7949;48.726;9.102;2022-11-20T00:50:26;7.77;;;4.27;;
15697;SDS011;7949;48.726;9.102;2022-11-20T00:52:53;6.23;;;4.03;;
15697;SDS011;7949;48.726;9.102;2022-11-20T00:55:19;7.60;;;4.70;;
15697;SDS011;7949;48.726;9.102;2022-11-20T00:57:46;6.97;;;4.30;;
15697;SDS011;7949;48.726;9.102;2022-11-20T01:00:13;8.73;;;4.73;;
15697;SDS011;7949;48.726;9.102;2022-11-20T01:02:42;9.43;;;4.17;;
15697;SDS011;7949;48.726;9.102;2022-11-20T01:05:09;7.27;;;4.27;;
15697;SDS011;7949;48.726;9.102;2022-11-20T01:07:36;6.23;;;4.43;;
15697;SDS011;7949;48.726;9.102;2022-11-20T01:10:03;7.63;;;4.37;;
15697;SDS011;7949;48.726;9.102;2022-11-20T01:12:30;5.20;;;3.70;;
15697;SDS011;7949;48.726;9.102;2022-11-20T01:14:57;4.97;;;3.90;;
15697;SDS011;7949;48.726;9.102;2022-11-20T01:17:24;6.47;;;4.57;;
15697;SDS011;7949;48.726;9.102;2022-11-20T01:19:52;8.93;;;4.53;;
15697;SDS011;7949;48.726;9.102;2022-11-20T01:22:19;7.13;;;4.23;;
15697;SDS011;7949;48.726;9.102;2022-11-20T01:24:46;6.20;;;4.07;;
15697;SDS011;7949;48.726;9.102;2022-11-20T01:27:13;7.37;;;4.23;;
15697;SDS011;7949;48.726;9.102;2022-11-20T01:29:40;5.77;;;3.90;;
15697;SDS011;7949;48.726;9.102;2022-11-20T01:32:07;7.47;;;3.90;;
15697;SDS011;7949;48.726;9.102;2022-11-20T01:34:34;6.80;;;3.97;;
15697;SDS011;7949;48.726;9.102;2022-11-20T01:37:02;6.60;;;5.10;;
15697;SDS011;7949;48.726;9.102;2022-11-20T01:39:29;6.87;;;4.00;;
15697;SDS011;7949;48.726;9.102;2022-11-20T01:41:56;6.43;;;4.30;;
15697;SDS011;7949;48.726;9.102;2022-11-20T01:44:56;6.63;;;4.47;;
15697;SDS011;7949;48.726;9.102;2022-11-20T01:47:29;11.63;;;4.90;;
15697;SDS011;7949;48.726;9.102;2022-11-20T01:50:02;8.20;;;4.27;;
15697;SDS011;7949;48.726;9.102;2022-11-20T01:52:34;8.37;;;4.33;;
15697;SDS011;7949;48.726;9.102;2022-11-20T01:55:04;8.00;;;4.20;;
15697;SDS011;7949;48.726;9.102;2022-11-20T01:57:34;6.37;;;3.70;;
15697;SDS011;7949;48.726;9.102;2022-11-20T02:00:03;8.83;;;3.97;;
15697;SDS011;7949;48.726;9.102;2022-11-20T02:02:32;6.17;;;4.13;;
15697;SDS011;7949;48.726;9.102;2022-11-20T02:05:01;6.90;;;4.23;;
15697;SDS011;7949;48.726;9.102;2022-11-20T02:07:36;6.93;;;4.30;;
15697;SDS011;7949;48.726;9.102;2022-11-20T02:10:04;7.03;;;4.10;;
15697;SDS011;7949;48.726;9.102;2022-11-20T02:12:31;6.70;;;4.30;;
15697;SDS011;7949;48.726;9.102;2022-11-20T02:15:15;7.10;;;3.50;;
15697;SDS011;7949;48.726;9.102;2022-11-20T02:17:42;7.27;;;3.67;;
15697;SDS011;7949;48.726;9.102;2022-11-20T02:20:10;6.23;;;3.83;;
15697;SDS011;7949;48.726;9.102;2022-11-20T02:22:41;6.60;;;3.70;;
15697;SDS011;7949;48.726;9.102;2022-11-20T02:25:16;6.07;;;3.40;;
15697;SDS011;7949;48.726;9.102;2022-11-20T02:27:44;5.40;;;3.37;;
15697;SDS011;7949;48.726;9.102;2022-11-20T02:30:11;6.13;;;3.60;;
15697;SDS011;7949;48.726;9.102;2022-11-20T02:32:39;6.03;;;3.90;;
15697;SDS011;7949;48.726;9.102;2022-11-20T02:35:06;7.80;;;4.40;;
15697;SDS011;7949;48.726;9.102;2022-11-20T02:37:35;5.00;;;3.87;;
15697;SDS011;7949;48.726;9.102;2022-11-20T02:40:05;4.40;;;3.80;;
15697;SDS011;7949;48.726;9.102;2022-11-20T02:42:35;5.07;;;3.60;;
15697;SDS011;7949;48.726;9.102;2022-11-20T02:45:02;5.50;;;3.97;;
15697;SDS011;7949;48.726;9.102;2022-11-20T02:47:29;5.23;;;3.73;;
15697;SDS011;7949;48.726;9.102;2022-11-20T02:49:57;4.87;;;3.40;;
15697;SDS011;7949;48.726;9.102;2022-11-20T02:52:24;7.30;;;3.60;;
15697;SDS011;7949;48.726;9.102;2022-11-20T02:54:51;5.83;;;3.43;;
15697;SDS011;7949;48.726;9.102;2022-11-20T02:59:55;5.77;;;3.97;;
15697;SDS011;7949;48.726;9.102;2022-11-20T03:02:22;9.10;;;3.93;;
15697;SDS011;7949;48.726;9.102;2022-11-20T03:04:49;6.90;;;4.30;;
15697;SDS011;7949;48.726;9.102;2022-11-20T03:07:16;5.47;;;3.67;;
15697;SDS011;7949;48.726;9.102;2022-11-20T03:09:42;4.83;;;3.93;;
15697;SDS011;7949;48.726;9.102;2022-11-20T03:12:09;8.00;;;4.07;;
15697;SDS011;7949;48.726;9.102;2022-11-20T03:14:36;6.33;;;4.37;;
15697;SDS011;7949;48.726;9.102;2022-11-20T03:17:05;7.53;;;4.73;;
15697;SDS011;7949;48.726;9.102;2022-11-20T03:19:32;8.70;;;4.93;;
15697;SDS011;7949;48.726;9.102;2022-11-20T03:21:59;8.57;;;5.30;;
15697;SDS011;7949;48.726;9.102;2022-11-20T03:24:26;6.47;;;4.60;;
15697;SDS011;7949;48.726;9.102;2022-11-20T03:26:53;6.80;;;4.60;;
15697;SDS011;7949;48.726;9.102;2022-11-20T03:29:20;7.27;;;4.77;;
15697;SDS011;7949;48.726;9.102;2022-11-20T03:31:47;12.03;;;4.80;;
15697;SDS011;7949;48.726;9.102;2022-11-20T03:34:15;7.20;;;5.13;;
15697;SDS011;7949;48.726;9.102;2022-11-20T03:36:45;7.90;;;4.60;;
15697;SDS011;7949;48.726;9.102;2022-11-20T03:39:12;12.73;;;5.07;;
15697;SDS011;7949;48.726;9.102;2022-11-20T03:41:40;7.07;;;4.60;;
15697;SDS011;7949;48.726;9.102;2022-11-20T03:44:08;9.77;;;5.40;;
15697;SDS011;7949;48.726;9.102;2022-11-20T03:46:37;8.70;;;5.30;;
15697;SDS011;7949;48.726;9.102;2022-11-20T03:49:04;7.10;;;4.83;;
15697;SDS011;7949;48.726;9.102;2022-11-20T03:51:33;7.93;;;5.27;;
15697;SDS011;7949;48.726;9.102;2022-11-20T03:54:01;8.83;;;5.27;;
15697;SDS011;7949;48.726;9.102;2022-11-20T03:56:30;7.73;;;5.47;;
15697;SDS011;7949;48.726;9.102;2022-11-20T03:58:58;8.17;;;5.13;;
15697;SDS011;7949;48.726;9.102;2022-11-20T04:01:26;10.43;;;5.50;;
15697;SDS011;7949;48.726;9.102;2022-11-20T04:03:55;10.87;;;5.73;;
15697;SDS011;7949;48.726;9.102;2022-11-20T04:06:24;9.37;;;5.70;;
15697;SDS011;7949;48.726;9.102;2022-11-20T04:08:55;9.17;;;6.27;;
15697;SDS011;7949;48.726;9.102;2022-11-20T04:11:23;7.87;;;5.13;;
15697;SDS011;7949;48.726;9.102;2022-11-20T04:13:51;11.67;;;5.67;;
15697;SDS011;7949;48.726;9.102;2022-11-20T04:16:19;7.73;;;5.50;;
15697;SDS011;7949;48.726;9.102;2022-11-20T04:18:50;8.60;;;5.60;;
15697;SDS011;7949;48.726;9.102;2022-11-20T04:21:18;8.53;;;5.17;;
15697;SDS011;7949;48.726;9.102;2022-11-20T04:23:45;8.57;;;5.37;;
15697;SDS011;7949;48.726;9.102;2022-11-20T04:26:14;10.97;;;5.30;;
15697;SDS011;7949;48.726;9.102;2022-11-20T04:28:41;8.80;;;5.40;;
15697;SDS011;7949;48.726;9.102;2022-11-20T04:31:09;7.20;;;5.43;;
15697;SDS011;7949;48.726;9.102;2022-11-20T04:33:37;6.80;;;4.97;;
15697;SDS011;7949;48.726;9.102;2022-11-20T04:36:06;8.37;;;4.87;;
15697;SDS011;7949;48.726;9.102;2022-11-20T04:38:34;8.13;;;5.57;;
15697;SDS011;7949;48.726;9.102;2022-11-20T04:41:01;9.30;;;5.10;;
15697;SDS011;7949;48.726;9.102;2022-11-20T04:43:31;7.97;;;4.93;;
15697;SDS011;7949;48.726;9.102;2022-11-20T04:45:58;10.67;;;4.97;;
15697;SDS011;7949;48.726;9.102;2022-11-20T04:48:27;7.27;;;4.93;;
15697;SDS011;7949;48.726;9.102;2022-11-20T04:50:54;10.17;;;5.17;;
15697;SDS011;7949;48.726;9.102;2022-11-20T04:53:22;8.30;;;5.50;;
15697;SDS011;7949;48.726;9.102;2022-11-20T04:55:49;6.87;;;4.83;;
15697;SDS011;7949;48.726;9.102;2022-11-20T04:58:16;8.67;;;5.23;;
15697;SDS011;7949;48.726;9.102;2022-11-20T05:00:44;10.03;;;5.17;;
15697;SDS011;7949;48.726;9.102;2022-11-20T05:03:11;7.67;;;4.90;;
15697;SDS011;7949;48.726;9.102;2022-11-20T05:05:38;8.40;;;5.30;;
15697;SDS011;7949;48.726;9.102;2022-11-20T05:08:05;8.47;;;4.97;;
15697;SDS011;7949;48.726;9.102;2022-11-20T05:10:32;7.20;;;4.73;;
15697;SDS011;7949;48.726;9.102;2022-11-20T05:12:59;7.20;;;4.30;;
15697;SDS011;7949;48.726;9.102;2022-11-20T05:15:25;7.70;;;4.33;;
15697;SDS011;7949;48.726;9.102;2022-11-20T05:17:54;6.30;;;4.27;;
15697;SDS011;7949;48.726;9.102;2022-11-20T05:20:21;8.37;;;4.47;;
15697;SDS011;7949;48.726;9.102;2022-11-20T05:22:48;6.33;;;4.47;;
15697;SDS011;7949;48.726;9.102;2022-11-20T05:25:14;7.13;;;4.17;;
15697;SDS011;7949;48.726;9.102;2022-11-20T05:27:41;6.10;;;3.97;;
15697;SDS011;7949;48.726;9.102;2022-11-20T05:30:09;9.97;;;4.50;;
15697;SDS011;7949;48.726;9.102;2022-11-20T05:32:36;7.93;;;4.20;;
15697;SDS011;7949;48.726;9.102;2022-11-20T05:35:05;6.40;;;3.80;;
15697;SDS011;7949;48.726;9.102;2022-11-20T05:37:33;4.30;;;3.43;;
15697;SDS011;7949;48.726;9.102;2022-11-20T05:40:00;9.97;;;3.93;;
15697;SDS011;7949;48.726;9.102;2022-11-20T05:42:29;4.30;;;3.40;;
15697;SDS011;7949;48.726;9.102;2022-11-20T05:44:56;5.47;;;3.50;;
15697;SDS011;7949;48.726;9.102;2022-11-20T05:47:24;6.63;;;4.03;;
15697;SDS011;7949;48.726;9.102;2022-11-20T05:49:51;4.50;;;3.07;;
15697;SDS011;7949;48.726;9.102;2022-11-20T05:52:19;3.90;;;3.07;;
15697;SDS011;7949;48.726;9.102;2022-11-20T05:54:46;6.20;;;3.67;;
15697;SDS011;7949;48.726;9.102;2022-11-20T05:57:13;4.10;;;2.77;;
15697;SDS011;7949;48.726;9.102;2022-11-20T05:59:41;5.50;;;3.27;;
15697;SDS011;7949;48.726;9.102;2022-11-20T06:02:08;6.60;;;3.00;;
15697;SDS011;7949;48.726;9.102;2022-11-20T06:04:35;6.33;;;3.03;;
15697;SDS011;7949;48.726;9.102;2022-11-20T06:07:02;5.50;;;3.33;;
15697;SDS011;7949;48.726;9.102;2022-11-20T06:09:30;6.83;;;3.60;;
15697;SDS011;7949;48.726;9.102;2022-11-20T06:11:57;5.10;;;3.33;;
15697;SDS011;7949;48.726;9.102;2022-11-20T06:14:24;5.50;;;3.30;;
15697;SDS011;7949;48.726;9.102;2022-11-20T06:16:51;5.40;;;3.23;;
15697;SDS011;7949;48.726;9.102;2022-11-20T06:19:18;3.73;;;3.00;;
15697;SDS011;7949;48.726;9.102;2022-11-20T06:21:45;4.37;;;3.00;;
15697;SDS011;7949;48.726;9.102;2022-11-20T06:24:13;4.70;;;2.83;;
15697;SDS011;7949;48.726;9.102;2022-11-20T06:26:47;7.03;;;2.80;;
15697;SDS011;7949;48.726;9.102;2022-11-20T06:29:19;4.03;;;2.80;;
15697;SDS011;7949;48.726;9.102;2022-11-20T06:31:51;6.30;;;3.07;;
15697;SDS011;7949;48.726;9.102;2022-11-20T06:34:19;3.33;;;2.73;;
15697;SDS011;7949;48.726;9.102;2022-11-20T06:36:51;4.00;;;2.70;;
15697;SDS011;7949;48.726;9.102;2022-11-20T06:39:20;4.93;;;2.70;;
15697;SDS011;7949;48.726;9.102;2022-11-20T06:41:54;4.53;;;3.00;;
15697;SDS011;7949;48.726;9.102;2022-11-20T06:44:22;6.00;;;3.10;;
15697;SDS011;7949;48.726;9.102;2022-11-20T06:46:49;4.37;;;2.97;;
15697;SDS011;7949;48.726;9.102;2022-11-20T06:49:21;5.63;;;3.20;;
15697;SDS011;7949;48.726;9.102;2022-11-20T06:51:56;6.30;;;3.00;;
15697;SDS011;7949;48.726;9.102;2022-11-20T06:54:28;6.40;;;3.17;;
15697;SDS011;7949;48.726;9.102;2022-11-20T06:56:58;4.50;;;3.23;;
15697;SDS011;7949;48.726;9.102;2022-11-20T06:59:25;5.17;;;3.23;;
15697;SDS011;7949;48.726;9.102;2022-11-20T07:01:52;7.13;;;3.10;;
15697;SDS011;7949;48.726;9.102;2022-11-20T07:04:19;4.80;;;2.97;;
15697;SDS011;7949;48.726;9.102;2022-11-20T07:06:46;5.10;;;3.50;;
15697;SDS011;7949;48.726;9.102;2022-11-20T07:09:14;4.87;;;3.00;;
15697;SDS011;7949;48.726;9.102;2022-11-20T07:11:41;6.07;;;3.23;;
15697;SDS011;7949;48.726;9.102;2022-11-20T07:14:09;4.43;;;3.07;;
15697;SDS011;7949;48.726;9.102;2022-11-20T07:16:36;4.60;;;2.70;;
15697;SDS011;7949;48.726;9.102;2022-11-20T07:19:03;4.60;;;3.07;;
15697;SDS011;7949;48.726;9.102;2022-11-20T07:21:30;6.63;;;3.10;;
15697;SDS011;7949;48.726;9.102;2022-11-20T07:23:57;4.57;;;2.93;;
15697;SDS011;7949;48.726;9.102;2022-11-20T07:26:24;4.23;;;2.70;;
15697;SDS011;7949;48.726;9.102;2022-11-20T07:28:51;5.37;;;2.53;;
15697;SDS011;7949;48.726;9.102;2022-11-20T07:31:19;3.67;;;2.63;;
15697;SDS011;7949;48.726;9.102;2022-11-20T07:33:46;10.17;;;2.53;;
15697;SDS011;7949;48.726;9.102;2022-11-20T07:36:13;4.33;;;2.50;;
15697;SDS011;7949;48.726;9.102;2022-11-20T07:38:40;3.90;;;2.50;;
15697;SDS011;7949;48.726;9.102;2022-11-20T07:41:07;2.97;;;2.23;;
15697;SDS011;7949;48.726;9.102;2022-11-20T07:43:34;3.80;;;2.63;;
15697;SDS011;7949;48.726;9.102;2022-11-20T07:46:00;4.13;;;2.37;;
15697;SDS011;7949;48.726;9.102;2022-11-20T07:48:30;2.67;;;2.13;;
15697;SDS011;7949;48.726;9.102;2022-11-20T07:50:57;4.70;;;2.20;;
15697;SDS011;7949;48.726;9.102;2022-11-20T07:53:24;5.43;;;2.43;;
15697;SDS011;7949;48.726;9.102;2022-11-20T07:55:51;3.57;;;2.13;;
15697;SDS011;7949;48.726;9.102;2022-11-20T07:58:18;4.77;;;2.17;;
15697;SDS011;7949;48.726;9.102;2022-11-20T08:00:45;4.67;;;2.33;;
15697;SDS011;7949;48.726;9.102;2022-11-20T08:03:12;3.13;;;2.07;;
15697;SDS011;7949;48.726;9.102;2022-11-20T08:05:40;4.17;;;1.93;;
15697;SDS011;7949;48.726;9.102;2022-11-20T08:08:07;3.73;;;2.00;;
15697;SDS011;7949;48.726;9.102;2022-11-20T08:10:34;3.00;;;2.00;;
15697;SDS011;7949;48.726;9.102;2022-11-20T08:13:01;2.77;;;2.00;;
15697;SDS011;7949;48.726;9.102;2022-11-20T08:15:47;3.33;;;2.13;;
15697;SDS011;7949;48.726;9.102;2022-11-20T08:18:16;3.20;;;2.03;;
15697;SDS011;7949;48.726;9.102;2022-11-20T08:20:45;2.70;;;2.20;;
15697;SDS011;7949;48.726;9.102;2022-11-20T08:23:11;3.20;;;2.10;;
15697;SDS011;7949;48.726;9.102;2022-11-20T08:25:39;3.10;;;2.27;;
15697;SDS011;7949;48.726;9.102;2022-11-20T08:28:07;3.77;;;2.23;;
15697;SDS011;7949;48.726;9.102;2022-11-20T08:30:35;3.93;;;1.60;;
15697;SDS011;7949;48.726;9.102;2022-11-20T08:33:03;3.17;;;2.03;;
15697;SDS011;7949;48.726;9.102;2022-11-20T08:35:32;2.50;;;1.97;;
15697;SDS011;7949;48.726;9.102;2022-11-20T08:38:01;4.30;;;1.90;;
15697;SDS011;7949;48.726;9.102;2022-11-20T08:40:28;2.47;;;1.77;;
15697;SDS011;7949;48.726;9.102;2022-11-20T08:42:55;3.67;;;2.20;;
15697;SDS011;7949;48.726;9.102;2022-11-20T08:45:23;3.47;;;2.10;;
15697;SDS011;7949;48.726;9.102;2022-11-20T08:47:50;2.70;;;1.70;;
15697;SDS011;7949;48.726;9.102;2022-11-20T08:50:17;3.23;;;2.33;;
15697;SDS011;7949;48.726;9.102;2022-11-20T08:52:44;2.30;;;1.70;;
15697;SDS011;7949;48.726;9.102;2022-11-20T08:55:12;1.87;;;1.50;;
15697;SDS011;7949;48.726;9.102;2022-11-20T08:57:40;3.67;;;1.80;;
15697;SDS011;7949;48.726;9.102;2022-11-20T09:00:07;2.17;;;1.30;;
15697;SDS011;7949;48.726;9.102;2022-11-20T09:02:36;2.23;;;1.40;;
15697;SDS011;7949;48.726;9.102;2022-11-20T09:05:03;2.13;;;1.30;;
15697;SDS011;7949;48.726;9.102;2022-11-20T09:07:31;1.53;;;1.13;;
15697;SDS011;7949;48.726;9.102;2022-11-20T09:09:58;2.97;;;1.30;;
15697;SDS011;7949;48.726;9.102;2022-11-20T09:12:26;2.10;;;1.60;;
15697;SDS011;7949;48.726;9.102;2022-11-20T09:14:53;1.90;;;1.13;;
15697;SDS011;7949;48.726;9.102;2022-11-20T09:17:19;2.17;;;1.30;;
15697;SDS011;7949;48.726;9.102;2022-11-20T09:19:46;1.60;;;1.23;;
15697;SDS011;7949;48.726;9.102;2022-11-20T09:22:13;1.33;;;1.10;;
15697;SDS011;7949;48.726;9.102;2022-11-20T09:24:40;1.87;;;1.30;;
15697;SDS011;7949;48.726;9.102;2022-11-20T09:27:07;1.97;;;1.13;;
15697;SDS011;7949;48.726;9.102;2022-11-20T09:29:36;1.63;;;1.27;;
15697;SDS011;7949;48.726;9.102;2022-11-20T09:32:03;1.50;;;1.33;;
15697;SDS011;7949;48.726;9.102;2022-11-20T09:34:31;1.33;;;0.90;;
15697;SDS011;7949;48.726;9.102;2022-11-20T09:36:58;2.03;;;1.20;;
15697;SDS011;7949;48.726;9.102;2022-11-20T09:39:25;1.47;;;0.97;;
15697;SDS011;7949;48.726;9.102;2022-11-20T09:42:04;1.17;;;0.80;;
15697;SDS011;7949;48.726;9.102;2022-11-20T09:44:59;1.20;;;0.90;;
15697;SDS011;7949;48.726;9.102;2022-11-20T09:47:40;1.17;;;0.80;;
15697;SDS011;7949;48.726;9.102;2022-11-20T09:50:18;1.30;;;0.90;;
15697;SDS011;7949;48.726;9.102;2022-11-20T09:52:55;2.63;;;1.00;;
15697;SDS011;7949;48.726;9.102;2022-11-20T09:55:32;1.77;;;0.90;;
15697;SDS011;7949;48.726;9.102;2022-11-20T09:58:01;2.50;;;0.87;;
15697;SDS011;7949;48.726;9.102;2022-11-20T10:00:33;2.87;;;0.73;;
15697;SDS011;7949;48.726;9.102;2022-11-20T10:03:02;1.37;;;0.70;;
15697;SDS011;7949;48.726;9.102;2022-11-20T10:05:37;0.97;;;0.70;;
15697;SDS011;7949;48.726;9.102;2022-11-20T10:08:10;0.97;;;0.70;;
15697;SDS011;7949;48.726;9.102;2022-11-20T10:10:46;0.77;;;0.60;;
15697;SDS011;7949;48.726;9.102;2022-11-20T10:13:27;1.77;;;0.80;;
15697;SDS011;7949;48.726;9.102;2022-11-20T10:16:11;0.90;;;0.70;;
15697;SDS011;7949;48.726;9.102;2022-11-20T10:18:51;1.03;;;0.53;;
15697;SDS011;7949;48.726;9.102;2022-11-20T10:21:27;0.80;;;0.70;;
15697;SDS011;7949;48.726;9.102;2022-11-20T10:27:35;1.70;;;0.60;;
15697;SDS011;7949;48.726;9.102;2022-11-20T10:30:17;2.10;;;0.70;;
15697;SDS011;7949;48.726;9.102;2022-11-20T10:32:52;2.40;;;1.03;;
15697;SDS011;7949;48.726;9.102;2022-11-20T10:35:25;1.60;;;1.00;;
15697;SDS011;7949;48.726;9.102;2022-11-20T10:37:56;2.07;;;0.70;;
15697;SDS011;7949;48.726;9.102;2022-11-20T10:40:27;1.20;;;1.10;;
15697;SDS011;7949;48.726;9.102;2022-11-20T10:42:59;0.97;;;0.80;;
15697;SDS011;7949;48.726;9.102;2022-11-20T10:45:36;1.47;;;0.70;;
15697;SDS011;7949;48.726;9.102;2022-11-20T10:48:14;1.27;;;0.90;;
15697;SDS011;7949;48.726;9.102;2022-11-20T10:53:45;3.60;;;1.00;;
15697;SDS011;7949;48.726;9.102;2022-11-20T10:56:20;2.37;;;0.80;;
15697;SDS011;7949;48.726;9.102;2022-11-20T10:59:00;1.67;;;1.03;;
15697;SDS011;7949;48.726;9.102;2022-11-20T11:01:39;2.87;;;1.20;;
15697;SDS011;7949;48.726;9.102;2022-11-20T11:04:12;2.90;;;1.13;;
15697;SDS011;7949;48.726;9.102;2022-11-20T11:06:48;3.70;;;1.27;;
15697;SDS011;7949;48.726;9.102;2022-11-20T11:09:16;2.30;;;1.20;;
15697;SDS011;7949;48.726;9.102;2022-11-20T11:11:49;3.73;;;1.60;;
15697;SDS011;7949;48.726;9.102;2022-11-20T11:14:16;2.80;;;1.43;;
15697;SDS011;7949;48.726;9.102;2022-11-20T11:16:49;4.77;;;2.27;;
15697;SDS011;7949;48.726;9.102;2022-11-20T11:19:19;2.23;;;1.57;;
15697;SDS011;7949;48.726;9.102;2022-11-20T11:21:46;2.80;;;1.43;;
15697;SDS011;7949;48.726;9.102;2022-11-20T11:24:18;3.33;;;1.90;;
15697;SDS011;7949;48.726;9.102;2022-11-20T11:26:51;1.93;;;1.50;;
15697;SDS011;7949;48.726;9.102;2022-11-20T11:29:21;4.10;;;1.67;;
15697;SDS011;7949;48.726;9.102;2022-11-20T11:31:48;2.43;;;1.50;;
15697;SDS011;7949;48.726;9.102;2022-11-20T11:34:16;2.73;;;1.80;;
15697;SDS011;7949;48.726;9.102;2022-11-20T11:36:49;4.00;;;1.60;;
15697;SDS011;7949;48.726;9.102;2022-11-20T11:39:21;3.50;;;1.70;;
15697;SDS011;7949;48.726;9.102;2022-11-20T11:41:49;3.90;;;1.60;;
15697;SDS011;7949;48.726;9.102;2022-11-20T11:44:17;3.23;;;1.40;;
15697;SDS011;7949;48.726;9.102;2022-11-20T11:47:20;2.27;;;1.10;;
15697;SDS011;7949;48.726;9.102;2022-11-20T11:49:50;1.57;;;1.00;;
15697;SDS011;7949;48.726;9.102;2022-11-20T11:52:27;5.93;;;1.20;;
15697;SDS011;7949;48.726;9.102;2022-11-20T11:54:57;2.60;;;1.03;;
15697;SDS011;7949;48.726;9.102;2022-11-20T11:57:28;4.97;;;1.70;;
15697;SDS011;7949;48.726;9.102;2022-11-20T12:00:02;2.93;;;1.40;;
15697;SDS011;7949;48.726;9.102;2022-11-20T12:02:35;5.80;;;1.30;;
15697;SDS011;7949;48.726;9.102;2022-11-20T12:05:10;3.67;;;1.10;;
15697;SDS011;7949;48.726;9.102;2022-11-20T12:07:45;2.17;;;1.10;;
15697;SDS011;7949;48.726;9.102;2022-11-20T12:10:18;2.30;;;0.60;;
15697;SDS011;7949;48.726;9.102;2022-11-20T12:12:49;2.60;;;0.90;;
15697;SDS011;7949;48.726;9.102;2022-11-20T12:15:28;3.27;;;1.13;;
15697;SDS011;7949;48.726;9.102;2022-11-20T12:17:56;1.23;;;0.70;;
15697;SDS011;7949;48.726;9.102;2022-11-20T12:20:26;7.33;;;3.83;;
15697;SDS011;7949;48.726;9.102;2022-11-20T12:22:56;1.43;;;0.90;;
15697;SDS011;7949;48.726;9.102;2022-11-20T12:25:31;5.17;;;1.10;;
15697;SDS011;7949;48.726;9.102;2022-11-20T12:28:08;2.73;;;1.10;;
15697;SDS011;7949;48.726;9.102;2022-11-20T12:30:53;1.10;;;0.70;;
15697;SDS011;7949;48.726;9.102;2022-11-20T12:33:55;3.07;;;0.80;;
15697;SDS011;7949;48.726;9.102;2022-11-20T12:36:32;0.70;;;0.50;;
15697;SDS011;7949;48.726;9.102;2022-11-20T12:39:19;5.00;;;0.80;;
15697;SDS011;7949;48.726;9.102;2022-11-20T12:48:36;1.37;;;0.77;;
15697;SDS011;7949;48.726;9.102;2022-11-20T12:51:15;3.17;;;0.53;;
15697;SDS011;7949;48.726;9.102;2022-11-20T12:53:55;2.90;;;0.80;;
15697;SDS011;7949;48.726;9.102;2022-11-20T12:56:31;2.00;;;0.60;;
15697;SDS011;7949;48.726;9.102;2022-11-20T12:59:13;0.97;;;0.50;;
15697;SDS011;7949;48.726;9.102;2022-11-20T13:01:52;1.23;;;0.63;;
15697;SDS011;7949;48.726;9.102;2022-11-20T13:04:34;2.40;;;0.93;;
15697;SDS011;7949;48.726;9.102;2022-11-20T13:07:15;1.83;;;1.40;;
15697;SDS011;7949;48.726;9.102;2022-11-20T13:09:45;3.33;;;0.57;;
15697;SDS011;7949;48.726;9.102;2022-11-20T13:12:15;1.63;;;0.60;;
15697;SDS011;7949;48.726;9.102;2022-11-20T13:14:50;2.90;;;0.53;;
15697;SDS011;7949;48.726;9.102;2022-11-20T13:17:22;4.43;;;0.60;;
15697;SDS011;7949;48.726;9.102;2022-11-20T13:19:56;1.50;;;0.63;;
15697;SDS011;7949;48.726;9.102;2022-11-20T13:22:25;1.50;;;0.60;;
15697;SDS011;7949;48.726;9.102;2022-11-20T13:24:54;2.70;;;1.20;;
15697;SDS011;7949;48.726;9.102;2022-11-20T13:27:21;2.27;;;0.90;;
15697;SDS011;7949;48.726;9.102;2022-11-20T13:29:59;0.83;;;0.47;;
15697;SDS011;7949;48.726;9.102;2022-11-20T13:32:29;3.03;;;0.80;;
15697;SDS011;7949;48.726;9.102;2022-11-20T13:34:58;1.20;;;0.50;;
15697;SDS011;7949;48.726;9.102;2022-11-20T13:37:28;2.10;;;0.70;;
15697;SDS011;7949;48.726;9.102;2022-11-20T13:40:12;3.33;;;1.10;;
15697;SDS011;7949;48.726;9.102;2022-11-20T13:42:51;2.83;;;0.60;;
15697;SDS011;7949;48.726;9.102;2022-11-20T13:45:23;2.30;;;0.60;;
15697;SDS011;7949;48.726;9.102;2022-11-20T13:47:51;2.43;;;1.67;;
15697;SDS011;7949;48.726;9.102;2022-11-20T13:50:20;3.23;;;0.67;;
15697;SDS011;7949;48.726;9.102;2022-11-20T13:52:58;2.40;;;0.80;;
15697;SDS011;7949;48.726;9.102;2022-11-20T13:55:33;3.10;;;0.70;;
15697;SDS011;7949;48.726;9.102;2022-11-20T13:58:05;1.13;;;0.67;;
15697;SDS011;7949;48.726;9.102;2022-11-20T14:00:48;2.03;;;1.10;;
15697;SDS011;7949;48.726;9.102;2022-11-20T14:03:21;2.17;;;1.20;;
15697;SDS011;7949;48.726;9.102;2022-11-20T14:05:51;1.80;;;0.77;;
15697;SDS011;7949;48.726;9.102;2022-11-20T14:08:25;3.77;;;1.10;;
15697;SDS011;7949;48.726;9.102;2022-11-20T14:11:12;1.30;;;0.67;;
15697;SDS011;7949;48.726;9.102;2022-11-20T14:13:50;2.07;;;0.80;;
15697;SDS011;7949;48.726;9.102;2022-11-20T14:16:20;4.33;;;0.90;;
15697;SDS011;7949;48.726;9.102;2022-11-20T14:18:47;4.93;;;1.10;;
15697;SDS011;7949;48.726;9.102;2022-11-20T14:21:20;2.37;;;0.90;;
15697;SDS011;7949;48.726;9.102;2022-11-20T14:23:48;3.10;;;0.80;;
15697;SDS011;7949;48.726;9.102;2022-11-20T14:26:17;5.17;;;1.00;;
15697;SDS011;7949;48.726;9.102;2022-11-20T14:28:47;1.73;;;0.57;;
15697;SDS011;7949;48.726;9.102;2022-11-20T14:31:18;1.97;;;0.67;;
15697;SDS011;7949;48.726;9.102;2022-11-20T14:33:49;1.83;;;0.80;;
15697;SDS011;7949;48.726;9.102;2022-11-20T14:36:17;2.53;;;1.00;;
15697;SDS011;7949;48.726;9.102;2022-11-20T14:38:46;1.83;;;0.80;;
15697;SDS011;7949;48.726;9.102;2022-11-20T14:41:17;1.10;;;0.80;;
15697;SDS011;7949;48.726;9.102;2022-11-20T14:43:46;1.90;;;1.07;;
15697;SDS011;7949;48.726;9.102;2022-11-20T14:46:16;2.10;;;1.00;;
15697;SDS011;7949;48.726;9.102;2022-11-20T14:48:45;3.77;;;0.83;;
15697;SDS011;7949;48.726;9.102;2022-11-20T14:51:23;2.33;;;0.90;;
15697;SDS011;7949;48.726;9.102;2022-11-20T14:53:55;3.73;;;0.70;;
15697;SDS011;7949;48.726;9.102;2022-11-20T14:56:24;3.00;;;1.00;;
15697;SDS011;7949;48.726;9.102;2022-11-20T14:58:57;3.23;;;0.97;;
15697;SDS011;7949;48.726;9.102;2022-11-20T15:01:25;7.03;;;0.93;;
15697;SDS011;7949;48.726;9.102;2022-11-20T15:03:58;2.60;;;1.00;;
15697;SDS011;7949;48.726;9.102;2022-11-20T15:06:27;1.00;;;0.70;;
15697;SDS011;7949;48.726;9.102;2022-11-20T15:08:55;3.83;;;1.47;;
15697;SDS011;7949;48.726;9.102;2022-11-20T15:11:25;4.10;;;1.27;;
15697;SDS011;7949;48.726;9.102;2022-11-20T15:16:26;4.40;;;1.27;;
15697;SDS011;7949;48.726;9.102;2022-11-20T15:18:53;4.90;;;1.03;;
15697;SDS011;7949;48.726;9.102;2022-11-20T15:21:20;3.10;;;0.93;;
15697;SDS011;7949;48.726;9.102;2022-11-20T15:23:48;1.80;;;0.97;;
15697;SDS011;7949;48.726;9.102;2022-11-20T15:26:15;1.60;;;0.83;;
15697;SDS011;7949;48.726;9.102;2022-11-20T15:28:48;1.73;;;0.87;;
15697;SDS011;7949;48.726;9.102;2022-11-20T15:31:16;1.70;;;0.80;;
15697;SDS011;7949;48.726;9.102;2022-11-20T15:33:45;2.70;;;1.10;;
15697;SDS011;7949;48.726;9.102;2022-11-20T15:36:13;2.87;;;1.10;;